sensor_id;sensor_type;location;lat;lon;timestamp;P1;P2;P0
80289;PMS7003;69592;44.804;-0.550;2023-09-12T00:01:59;15.00;14.00;10.67
80289;PMS7003;69592;44.804;-0.550;2023-09-12T00:04:25;10.33;10.33;9.00
80289;PMS7003;69592;44.804;-0.550;2023-09-12T00:06:50;11.00;11.00;8.00
80289;PMS7003;69592;44.804;-0.550;2023-09-12T00:09:16;11.00;10.00;8.00
80289;PMS7003;69592;44.804;-0.550;2023-09-12T00:11:41;11.67;10.33;9.00
80289;PMS7003;69592;44.804;-0.550;2023-09-12T00:14:08;9.67;9.67;8.33
80289;PMS7003;69592;44.804;-0.550;2023-09-12T00:16:34;10.00;10.00;8.00
80289;PMS7003;69592;44.804;-0.550;2023-09-12T00:18:59;10.67;10.67;7.00
80289;PMS7003;69592;44.804;-0.550;2023-09-12T00:21:25;14.67;13.00;9.67
80289;PMS7003;69592;44.804;-0.550;2023-09-12T00:23:50;12.67;11.67;8.67
80289;PMS7003;69592;44.804;-0.550;2023-09-12T00:26:16;12.00;12.00;8.67
80289;PMS7003;69592;44.804;-0.550;2023-09-12T00:28:41;13.67;13.67;11.67
80289;PMS7003;69592;44.804;-0.550;2023-09-12T00:31:06;13.00;11.00;8.67
80289;PMS7003;69592;44.804;-0.550;2023-09-12T00:33:32;12.00;11.33;8.67
80289;PMS7003;69592;44.804;-0.550;2023-09-12T00:35:57;9.67;9.67;8.00
80289;PMS7003;69592;44.804;-0.550;2023-09-12T00:38:23;10.67;10.00;7.67
80289;PMS7003;69592;44.804;-0.550;2023-09-12T00:40:48;12.33;11.67;8.00
80289;PMS7003;69592;44.804;-0.550;2023-09-12T00:43:15;11.00;10.67;9.00
80289;PMS7003;69592;44.804;-0.550;2023-09-12T00:45:40;11.00;10.00;8.00
80289;PMS7003;69592;44.804;-0.550;2023-09-12T00:48:06;12.00;10.33;8.00
80289;PMS7003;69592;44.804;-0.550;2023-09-12T00:50:33;9.33;9.33;6.00
80289;PMS7003;69592;44.804;-0.550;2023-09-12T00:53:01;12.00;9.67;7.67
80289;PMS7003;69592;44.804;-0.550;2023-09-12T00:55:28;11.33;11.00;8.00
80289;PMS7003;69592;44.804;-0.550;2023-09-12T00:57:56;9.33;9.33;7.00
80289;PMS7003;69592;44.804;-0.550;2023-09-12T01:00:21;11.33;10.33;8.67
80289;PMS7003;69592;44.804;-0.550;2023-09-12T01:02:47;11.00;11.00;9.00
80289;PMS7003;69592;44.804;-0.550;2023-09-12T01:05:14;9.33;9.33;7.00
80289;PMS7003;69592;44.804;-0.550;2023-09-12T01:07:41;10.67;9.00;8.00
80289;PMS7003;69592;44.804;-0.550;2023-09-12T01:10:08;10.00;9.00;7.00
80289;PMS7003;69592;44.804;-0.550;2023-09-12T01:12:34;9.33;8.33;7.33
80289;PMS7003;69592;44.804;-0.550;2023-09-12T01:15:01;9.00;9.00;7.00
80289;PMS7003;69592;44.804;-0.550;2023-09-12T01:17:26;12.00;11.00;7.67
80289;PMS7003;69592;44.804;-0.550;2023-09-12T01:19:52;8.33;8.33;6.00
80289;PMS7003;69592;44.804;-0.550;2023-09-12T01:27:55;9.00;9.00;7.33
80289;PMS7003;69592;44.804;-0.550;2023-09-12T01:30:26;10.33;10.33;8.67
80289;PMS7003;69592;44.804;-0.550;2023-09-12T01:32:53;9.00;8.67;7.00
80289;PMS7003;69592;44.804;-0.550;2023-09-12T01:35:19;11.33;10.33;8.00
80289;PMS7003;69592;44.804;-0.550;2023-09-12T01:37:44;10.00;10.00;8.33
80289;PMS7003;69592;44.804;-0.550;2023-09-12T01:40:10;10.00;10.00;8.00
80289;PMS7003;69592;44.804;-0.550;2023-09-12T01:42:37;8.00;8.00;7.00
80289;PMS7003;69592;44.804;-0.550;2023-09-12T01:45:05;10.33;10.33;8.00
80289;PMS7003;69592;44.804;-0.550;2023-09-12T01:47:35;10.00;10.00;8.00
80289;PMS7003;69592;44.804;-0.550;2023-09-12T01:50:02;12.33;12.33;9.67
80289;PMS7003;69592;44.804;-0.550;2023-09-12T01:52:29;9.67;9.67;6.67
80289;PMS7003;69592;44.804;-0.550;2023-09-12T01:54:55;13.00;13.00;9.00
80289;PMS7003;69592;44.804;-0.550;2023-09-12T01:57:21;10.33;8.33;6.67
80289;PMS7003;69592;44.804;-0.550;2023-09-12T01:59:47;11.33;10.67;8.67
80289;PMS7003;69592;44.804;-0.550;2023-09-12T02:02:14;11.33;11.33;8.67
80289;PMS7003;69592;44.804;-0.550;2023-09-12T02:04:41;11.67;11.67;8.67
80289;PMS7003;69592;44.804;-0.550;2023-09-12T02:07:06;6.67;6.67;6.00
80289;PMS7003;69592;44.804;-0.550;2023-09-12T02:09:32;12.00;12.00;9.00
80289;PMS7003;69592;44.804;-0.550;2023-09-12T02:11:57;14.00;13.00;11.00
80289;PMS7003;69592;44.804;-0.550;2023-09-12T02:14:23;11.67;11.67;9.00
80289;PMS7003;69592;44.804;-0.550;2023-09-12T02:16:48;11.67;9.33;7.33
80289;PMS7003;69592;44.804;-0.550;2023-09-12T02:19:13;12.00;12.00;9.67
80289;PMS7003;69592;44.804;-0.550;2023-09-12T02:21:39;10.33;10.00;6.00
80289;PMS7003;69592;44.804;-0.550;2023-09-12T02:24:04;13.00;12.00;8.00
80289;PMS7003;69592;44.804;-0.550;2023-09-12T02:26:30;15.33;12.67;9.00
80289;PMS7003;69592;44.804;-0.550;2023-09-12T02:29:00;12.67;12.00;9.00
80289;PMS7003;69592;44.804;-0.550;2023-09-12T02:31:26;13.33;11.33;9.00
80289;PMS7003;69592;44.804;-0.550;2023-09-12T02:33:51;12.67;12.00;10.00
80289;PMS7003;69592;44.804;-0.550;2023-09-12T02:36:17;12.33;12.33;10.33
80289;PMS7003;69592;44.804;-0.550;2023-09-12T02:38:42;13.00;12.00;9.00
80289;PMS7003;69592;44.804;-0.550;2023-09-12T02:41:08;11.00;11.00;9.00
80289;PMS7003;69592;44.804;-0.550;2023-09-12T02:43:33;13.67;12.33;10.00
80289;PMS7003;69592;44.804;-0.550;2023-09-12T02:45:58;14.67;14.33;11.00
80289;PMS7003;69592;44.804;-0.550;2023-09-12T02:48:24;13.67;13.67;8.67
80289;PMS7003;69592;44.804;-0.550;2023-09-12T02:50:49;12.67;12.67;9.67
80289;PMS7003;69592;44.804;-0.550;2023-09-12T02:53:14;12.00;12.00;9.00
80289;PMS7003;69592;44.804;-0.550;2023-09-12T02:55:42;13.00;13.00;10.67
80289;PMS7003;69592;44.804;-0.550;2023-09-12T02:58:07;14.00;13.00;10.00
80289;PMS7003;69592;44.804;-0.550;2023-09-12T03:00:37;10.33;10.00;9.00
80289;PMS7003;69592;44.804;-0.550;2023-09-12T03:03:03;14.67;14.67;9.00
80289;PMS7003;69592;44.804;-0.550;2023-09-12T03:05:29;13.67;11.33;9.33
80289;PMS7003;69592;44.804;-0.550;2023-09-12T03:07:54;11.67;11.67;9.00
80289;PMS7003;69592;44.804;-0.550;2023-09-12T03:10:20;15.00;14.33;11.00
80289;PMS7003;69592;44.804;-0.550;2023-09-12T03:12:45;12.33;12.33;10.00
80289;PMS7003;69592;44.804;-0.550;2023-09-12T03:15:10;14.00;14.00;10.00
80289;PMS7003;69592;44.804;-0.550;2023-09-12T03:17:36;11.00;11.00;9.00
80289;PMS7003;69592;44.804;-0.550;2023-09-12T03:20:01;13.00;11.00;9.00
80289;PMS7003;69592;44.804;-0.550;2023-09-12T03:22:29;11.67;11.00;9.00
80289;PMS7003;69592;44.804;-0.550;2023-09-12T03:24:57;11.00;11.00;8.67
80289;PMS7003;69592;44.804;-0.550;2023-09-12T03:27:22;13.33;11.33;9.00
80289;PMS7003;69592;44.804;-0.550;2023-09-12T03:29:48;11.67;11.67;9.33
80289;PMS7003;69592;44.804;-0.550;2023-09-12T03:32:13;12.33;12.33;10.00
80289;PMS7003;69592;44.804;-0.550;2023-09-12T03:34:38;14.00;13.33;10.33
80289;PMS7003;69592;44.804;-0.550;2023-09-12T03:37:04;13.33;13.00;11.00
80289;PMS7003;69592;44.804;-0.550;2023-09-12T03:39:29;14.33;14.33;10.00
80289;PMS7003;69592;44.804;-0.550;2023-09-12T03:41:55;15.67;15.67;11.33
80289;PMS7003;69592;44.804;-0.550;2023-09-12T03:44:20;11.67;11.33;9.33
80289;PMS7003;69592;44.804;-0.550;2023-09-12T03:46:45;14.33;13.00;9.33
80289;PMS7003;69592;44.804;-0.550;2023-09-12T03:49:11;13.33;13.33;10.33
80289;PMS7003;69592;44.804;-0.550;2023-09-12T03:51:36;12.67;12.33;9.67
80289;PMS7003;69592;44.804;-0.550;2023-09-12T03:54:03;16.33;16.33;12.67
80289;PMS7003;69592;44.804;-0.550;2023-09-12T03:56:28;13.33;13.33;10.00
80289;PMS7003;69592;44.804;-0.550;2023-09-12T03:58:53;13.33;13.33;11.00
80289;PMS7003;69592;44.804;-0.550;2023-09-12T04:01:22;14.00;13.00;10.00
80289;PMS7003;69592;44.804;-0.550;2023-09-12T04:03:48;13.33;13.33;11.00
80289;PMS7003;69592;44.804;-0.550;2023-09-12T04:06:13;13.33;13.33;9.00
80289;PMS7003;69592;44.804;-0.550;2023-09-12T04:08:39;17.00;15.00;11.67
80289;PMS7003;69592;44.804;-0.550;2023-09-12T04:11:04;14.00;14.00;12.00
80289;PMS7003;69592;44.804;-0.550;2023-09-12T04:13:29;15.67;14.67;11.00
80289;PMS7003;69592;44.804;-0.550;2023-09-12T04:15:55;12.00;12.00;10.00
80289;PMS7003;69592;44.804;-0.550;2023-09-12T04:18:21;13.33;13.00;9.00
80289;PMS7003;69592;44.804;-0.550;2023-09-12T04:20:46;11.00;11.00;8.67
80289;PMS7003;69592;44.804;-0.550;2023-09-12T04:23:11;15.33;15.00;11.33
80289;PMS7003;69592;44.804;-0.550;2023-09-12T04:25:37;14.00;14.00;11.00
80289;PMS7003;69592;44.804;-0.550;2023-09-12T04:28:03;13.00;12.00;9.67
80289;PMS7003;69592;44.804;-0.550;2023-09-12T04:30:28;19.67;16.67;11.00
80289;PMS7003;69592;44.804;-0.550;2023-09-12T04:32:54;16.00;14.33;11.00
80289;PMS7003;69592;44.804;-0.550;2023-09-12T04:35:19;14.33;14.00;11.00
80289;PMS7003;69592;44.804;-0.550;2023-09-12T04:37:46;16.67;16.67;12.00
80289;PMS7003;69592;44.804;-0.550;2023-09-12T04:40:12;11.00;10.00;7.00
80289;PMS7003;69592;44.804;-0.550;2023-09-12T04:42:38;13.00;12.33;10.00
80289;PMS7003;69592;44.804;-0.550;2023-09-12T04:45:03;15.67;15.00;11.33
80289;PMS7003;69592;44.804;-0.550;2023-09-12T04:47:29;15.67;14.33;11.00
80289;PMS7003;69592;44.804;-0.550;2023-09-12T04:49:54;16.33;16.33;11.00
80289;PMS7003;69592;44.804;-0.550;2023-09-12T04:52:20;15.00;13.33;11.00
80289;PMS7003;69592;44.804;-0.550;2023-09-12T04:54:45;14.00;14.00;11.00
80289;PMS7003;69592;44.804;-0.550;2023-09-12T04:57:11;16.00;16.00;11.33
80289;PMS7003;69592;44.804;-0.550;2023-09-12T04:59:37;18.00;18.00;13.67
80289;PMS7003;69592;44.804;-0.550;2023-09-12T05:02:02;16.33;16.33;12.00
80289;PMS7003;69592;44.804;-0.550;2023-09-12T05:04:28;12.00;11.33;9.00
80289;PMS7003;69592;44.804;-0.550;2023-09-12T05:06:53;12.33;12.33;9.00
80289;PMS7003;69592;44.804;-0.550;2023-09-12T05:09:19;15.67;15.00;10.67
80289;PMS7003;69592;44.804;-0.550;2023-09-12T05:11:44;11.33;11.33;9.67
80289;PMS7003;69592;44.804;-0.550;2023-09-12T05:14:10;16.67;15.67;10.00
80289;PMS7003;69592;44.804;-0.550;2023-09-12T05:16:35;13.00;13.00;10.00
80289;PMS7003;69592;44.804;-0.550;2023-09-12T05:19:01;15.33;13.00;10.00
80289;PMS7003;69592;44.804;-0.550;2023-09-12T05:21:26;13.67;13.00;10.00
80289;PMS7003;69592;44.804;-0.550;2023-09-12T05:23:51;13.33;13.33;9.33
80289;PMS7003;69592;44.804;-0.550;2023-09-12T05:26:17;11.33;11.33;9.00
80289;PMS7003;69592;44.804;-0.550;2023-09-12T05:28:42;17.00;15.67;10.67
80289;PMS7003;69592;44.804;-0.550;2023-09-12T05:31:08;14.33;14.33;11.00
80289;PMS7003;69592;44.804;-0.550;2023-09-12T05:33:33;14.33;14.33;10.00
80289;PMS7003;69592;44.804;-0.550;2023-09-12T05:35:59;14.33;14.33;10.00
80289;PMS7003;69592;44.804;-0.550;2023-09-12T05:38:25;15.67;15.33;11.00
80289;PMS7003;69592;44.804;-0.550;2023-09-12T05:40:51;14.33;14.33;11.67
80289;PMS7003;69592;44.804;-0.550;2023-09-12T05:43:16;14.67;14.67;11.67
80289;PMS7003;69592;44.804;-0.550;2023-09-12T05:45:42;17.00;16.00;11.00
80289;PMS7003;69592;44.804;-0.550;2023-09-12T05:48:08;15.33;12.00;10.00
80289;PMS7003;69592;44.804;-0.550;2023-09-12T05:50:34;15.00;15.00;10.67
80289;PMS7003;69592;44.804;-0.550;2023-09-12T05:53:01;16.00;16.00;12.00
80289;PMS7003;69592;44.804;-0.550;2023-09-12T05:55:27;17.33;15.00;11.00
80289;PMS7003;69592;44.804;-0.550;2023-09-12T05:57:52;16.33;13.67;11.00
80289;PMS7003;69592;44.804;-0.550;2023-09-12T06:00:18;16.00;16.00;12.00
80289;PMS7003;69592;44.804;-0.550;2023-09-12T06:02:44;15.67;14.33;11.33
80289;PMS7003;69592;44.804;-0.550;2023-09-12T06:05:10;14.33;14.00;10.00
80289;PMS7003;69592;44.804;-0.550;2023-09-12T06:07:35;10.00;10.00;9.33
80289;PMS7003;69592;44.804;-0.550;2023-09-12T06:10:02;15.33;15.00;12.00
80289;PMS7003;69592;44.804;-0.550;2023-09-12T06:12:28;17.67;16.33;11.67
80289;PMS7003;69592;44.804;-0.550;2023-09-12T06:14:53;14.33;14.33;12.00
80289;PMS7003;69592;44.804;-0.550;2023-09-12T06:17:20;19.00;17.67;12.67
80289;PMS7003;69592;44.804;-0.550;2023-09-12T06:19:47;17.00;17.00;13.67
80289;PMS7003;69592;44.804;-0.550;2023-09-12T06:22:14;18.33;18.33;13.00
80289;PMS7003;69592;44.804;-0.550;2023-09-12T06:24:40;18.00;17.67;12.00
80289;PMS7003;69592;44.804;-0.550;2023-09-12T06:27:05;18.00;18.00;14.00
80289;PMS7003;69592;44.804;-0.550;2023-09-12T06:29:31;19.00;19.00;14.67
80289;PMS7003;69592;44.804;-0.550;2023-09-12T06:31:56;20.33;18.33;13.67
80289;PMS7003;69592;44.804;-0.550;2023-09-12T06:34:22;18.00;18.00;14.67
80289;PMS7003;69592;44.804;-0.550;2023-09-12T06:36:48;17.67;17.67;14.00
80289;PMS7003;69592;44.804;-0.550;2023-09-12T06:39:13;18.67;17.67;14.00
80289;PMS7003;69592;44.804;-0.550;2023-09-12T06:41:38;19.33;19.33;14.00
80289;PMS7003;69592;44.804;-0.550;2023-09-12T06:44:04;19.67;19.00;13.67
80289;PMS7003;69592;44.804;-0.550;2023-09-12T06:46:30;18.67;17.00;13.33
80289;PMS7003;69592;44.804;-0.550;2023-09-12T06:48:56;19.67;19.67;14.00
80289;PMS7003;69592;44.804;-0.550;2023-09-12T06:51:25;20.33;20.33;14.00
80289;PMS7003;69592;44.804;-0.550;2023-09-12T06:53:53;18.67;18.67;12.33
80289;PMS7003;69592;44.804;-0.550;2023-09-12T06:56:18;17.00;17.00;13.00
80289;PMS7003;69592;44.804;-0.550;2023-09-12T06:58:43;19.33;19.33;13.33
80289;PMS7003;69592;44.804;-0.550;2023-09-12T07:01:09;17.00;17.00;14.00
80289;PMS7003;69592;44.804;-0.550;2023-09-12T07:03:35;20.00;20.00;14.00
80289;PMS7003;69592;44.804;-0.550;2023-09-12T07:06:01;17.67;16.67;12.00
80289;PMS7003;69592;44.804;-0.550;2023-09-12T07:08:31;21.00;19.33;14.33
80289;PMS7003;69592;44.804;-0.550;2023-09-12T07:10:57;16.00;16.00;13.00
80289;PMS7003;69592;44.804;-0.550;2023-09-12T07:13:23;16.33;16.33;11.67
80289;PMS7003;69592;44.804;-0.550;2023-09-12T07:15:49;23.67;22.00;16.00
80289;PMS7003;69592;44.804;-0.550;2023-09-12T07:18:15;23.33;21.33;16.67
80289;PMS7003;69592;44.804;-0.550;2023-09-12T07:20:41;26.00;23.67;17.33
80289;PMS7003;69592;44.804;-0.550;2023-09-12T07:23:07;22.33;21.33;16.33
80289;PMS7003;69592;44.804;-0.550;2023-09-12T07:25:39;26.67;24.33;17.67
80289;PMS7003;69592;44.804;-0.550;2023-09-12T07:28:06;26.67;24.00;18.67
80289;PMS7003;69592;44.804;-0.550;2023-09-12T07:30:32;22.67;22.67;16.00
80289;PMS7003;69592;44.804;-0.550;2023-09-12T07:32:57;27.00;24.67;16.00
80289;PMS7003;69592;44.804;-0.550;2023-09-12T07:35:22;24.33;23.33;16.67
80289;PMS7003;69592;44.804;-0.550;2023-09-12T07:37:49;23.67;22.00;14.67
80289;PMS7003;69592;44.804;-0.550;2023-09-12T07:40:15;23.00;22.67;17.67
80289;PMS7003;69592;44.804;-0.550;2023-09-12T07:42:40;20.67;18.67;14.00
80289;PMS7003;69592;44.804;-0.550;2023-09-12T07:45:06;19.00;18.67;13.00
80289;PMS7003;69592;44.804;-0.550;2023-09-12T07:47:32;19.00;19.00;13.67
80289;PMS7003;69592;44.804;-0.550;2023-09-12T07:49:58;14.33;14.00;10.33
80289;PMS7003;69592;44.804;-0.550;2023-09-12T07:52:25;18.33;17.33;12.67
80289;PMS7003;69592;44.804;-0.550;2023-09-12T07:54:51;19.33;19.33;13.00
80289;PMS7003;69592;44.804;-0.550;2023-09-12T07:57:22;15.67;15.67;11.67
80289;PMS7003;69592;44.804;-0.550;2023-09-12T07:59:47;18.33;17.33;11.67
80289;PMS7003;69592;44.804;-0.550;2023-09-12T08:02:13;17.33;17.33;13.00
80289;PMS7003;69592;44.804;-0.550;2023-09-12T08:04:38;20.67;19.33;14.00
80289;PMS7003;69592;44.804;-0.550;2023-09-12T08:07:04;23.67;20.67;14.67
80289;PMS7003;69592;44.804;-0.550;2023-09-12T08:09:47;18.33;18.33;14.00
80289;PMS7003;69592;44.804;-0.550;2023-09-12T08:12:21;21.00;20.00;16.00
80289;PMS7003;69592;44.804;-0.550;2023-09-12T08:14:47;17.33;16.33;12.67
80289;PMS7003;69592;44.804;-0.550;2023-09-12T08:17:13;10.00;9.00;8.00
80289;PMS7003;69592;44.804;-0.550;2023-09-12T08:19:39;20.33;20.33;14.00
80289;PMS7003;69592;44.804;-0.550;2023-09-12T08:22:05;15.67;15.67;12.67
80289;PMS7003;69592;44.804;-0.550;2023-09-12T08:24:32;15.50;15.00;11.00
80289;PMS7003;69592;44.804;-0.550;2023-09-12T08:26:58;16.50;14.00;9.75
80289;PMS7003;69592;44.804;-0.550;2023-09-12T08:29:23;15.33;15.33;11.00
80289;PMS7003;69592;44.804;-0.550;2023-09-12T08:31:49;14.33;14.33;10.67
80289;PMS7003;69592;44.804;-0.550;2023-09-12T08:34:15;17.33;16.33;12.00
80289;PMS7003;69592;44.804;-0.550;2023-09-12T08:36:40;14.33;14.33;11.00
80289;PMS7003;69592;44.804;-0.550;2023-09-12T08:39:05;19.33;17.33;13.00
80289;PMS7003;69592;44.804;-0.550;2023-09-12T08:41:34;18.50;16.75;11.75
80289;PMS7003;69592;44.804;-0.550;2023-09-12T08:43:59;15.25;13.50;10.75
80289;PMS7003;69592;44.804;-0.550;2023-09-12T08:46:26;15.00;15.00;12.50
80289;PMS7003;69592;44.804;-0.550;2023-09-12T08:48:53;16.25;13.75;10.50
80289;PMS7003;69592;44.804;-0.550;2023-09-12T08:51:22;13.25;13.25;9.00
80289;PMS7003;69592;44.804;-0.550;2023-09-12T08:53:49;15.50;15.00;11.00
80289;PMS7003;69592;44.804;-0.550;2023-09-12T08:56:17;14.25;12.50;10.00
80289;PMS7003;69592;44.804;-0.550;2023-09-12T08:58:43;15.00;13.75;9.25
80289;PMS7003;69592;44.804;-0.550;2023-09-12T09:01:09;12.00;12.00;8.00
80289;PMS7003;69592;44.804;-0.550;2023-09-12T09:03:38;11.00;11.00;9.00
80289;PMS7003;69592;44.804;-0.550;2023-09-12T09:06:06;13.67;13.67;9.67
80289;PMS7003;69592;44.804;-0.550;2023-09-12T09:08:32;12.50;12.50;9.75
80289;PMS7003;69592;44.804;-0.550;2023-09-12T09:10:59;5.25;5.25;5.00
80289;PMS7003;69592;44.804;-0.550;2023-09-12T09:13:27;7.75;7.75;5.75
80289;PMS7003;69592;44.804;-0.550;2023-09-12T09:16:12;7.75;6.75;6.25
80289;PMS7003;69592;44.804;-0.550;2023-09-12T09:18:49;8.00;6.50;5.75
80289;PMS7003;69592;44.804;-0.550;2023-09-12T09:21:20;5.00;5.00;4.00
80289;PMS7003;69592;44.804;-0.550;2023-09-12T09:23:49;5.50;5.50;4.25
80289;PMS7003;69592;44.804;-0.550;2023-09-12T09:26:15;6.25;6.25;4.75
80289;PMS7003;69592;44.804;-0.550;2023-09-12T09:28:40;5.00;3.00;3.00
80289;PMS7003;69592;44.804;-0.550;2023-09-12T09:31:10;2.50;2.50;2.25
80289;PMS7003;69592;44.804;-0.550;2023-09-12T09:33:37;1.00;1.00;0.75
80289;PMS7003;69592;44.804;-0.550;2023-09-12T09:36:04;2.75;2.75;2.00
80289;PMS7003;69592;44.804;-0.550;2023-09-12T09:38:30;4.00;3.00;2.60
80289;PMS7003;69592;44.804;-0.550;2023-09-12T09:40:56;0.00;0.00;0.00
80289;PMS7003;69592;44.804;-0.550;2023-09-12T09:43:22;2.00;2.00;2.00
80289;PMS7003;69592;44.804;-0.550;2023-09-12T09:45:49;1.00;1.00;1.00
80289;PMS7003;69592;44.804;-0.550;2023-09-12T09:48:22;2.75;2.75;2.75
80289;PMS7003;69592;44.804;-0.550;2023-09-12T09:50:50;1.00;1.00;1.00
80289;PMS7003;69592;44.804;-0.550;2023-09-12T09:53:17;2.25;2.25;1.50
80289;PMS7003;69592;44.804;-0.550;2023-09-12T09:55:51;1.75;1.75;1.00
80289;PMS7003;69592;44.804;-0.550;2023-09-12T09:58:16;3.50;3.50;3.00
80289;PMS7003;69592;44.804;-0.550;2023-09-12T10:00:42;3.25;3.00;2.00
80289;PMS7003;69592;44.804;-0.550;2023-09-12T10:03:08;3.25;2.75;2.00
80289;PMS7003;69592;44.804;-0.550;2023-09-12T10:05:36;2.25;2.25;1.75
80289;PMS7003;69592;44.804;-0.550;2023-09-12T10:08:02;2.80;2.80;2.60
80289;PMS7003;69592;44.804;-0.550;2023-09-12T10:10:31;2.80;2.80;2.80
80289;PMS7003;69592;44.804;-0.550;2023-09-12T10:12:59;6.25;3.75;2.50
80289;PMS7003;69592;44.804;-0.550;2023-09-12T10:15:28;3.00;3.00;2.75
80289;PMS7003;69592;44.804;-0.550;2023-09-12T10:17:56;2.00;2.00;1.75
80289;PMS7003;69592;44.804;-0.550;2023-09-12T10:20:35;3.75;2.75;2.25
80289;PMS7003;69592;44.804;-0.550;2023-09-12T10:23:06;3.75;1.75;1.75
80289;PMS7003;69592;44.804;-0.550;2023-09-12T10:25:36;4.00;2.50;2.00
80289;PMS7003;69592;44.804;-0.550;2023-09-12T10:28:03;5.25;5.25;4.00
80289;PMS7003;69592;44.804;-0.550;2023-09-12T10:30:30;4.00;4.00;3.50
80289;PMS7003;69592;44.804;-0.550;2023-09-12T10:32:57;4.00;3.00;3.00
80289;PMS7003;69592;44.804;-0.550;2023-09-12T10:35:23;3.50;3.50;2.50
80289;PMS7003;69592;44.804;-0.550;2023-09-12T10:37:49;4.00;4.00;3.50
80289;PMS7003;69592;44.804;-0.550;2023-09-12T10:40:16;3.75;3.00;3.00
80289;PMS7003;69592;44.804;-0.550;2023-09-12T10:42:44;5.00;4.00;3.00
80289;PMS7003;69592;44.804;-0.550;2023-09-12T10:45:09;4.75;4.75;3.25
80289;PMS7003;69592;44.804;-0.550;2023-09-12T10:47:38;3.00;3.00;2.75
80289;PMS7003;69592;44.804;-0.550;2023-09-12T10:50:04;5.00;5.00;4.00
80289;PMS7003;69592;44.804;-0.550;2023-09-12T10:52:30;4.00;4.00;3.25
80289;PMS7003;69592;44.804;-0.550;2023-09-12T10:54:56;4.75;4.75;3.00
80289;PMS7003;69592;44.804;-0.550;2023-09-12T10:57:22;6.25;6.25;4.00
80289;PMS7003;69592;44.804;-0.550;2023-09-12T11:02:39;7.00;5.00;4.50
80289;PMS7003;69592;44.804;-0.550;2023-09-12T11:07:55;6.50;6.50;4.50
80289;PMS7003;69592;44.804;-0.550;2023-09-12T11:10:25;6.25;6.25;6.25
80289;PMS7003;69592;44.804;-0.550;2023-09-12T11:12:51;6.50;6.50;4.75
80289;PMS7003;69592;44.804;-0.550;2023-09-12T11:15:22;6.50;6.50;5.00
80289;PMS7003;69592;44.804;-0.550;2023-09-12T11:17:49;5.75;5.75;4.75
80289;PMS7003;69592;44.804;-0.550;2023-09-12T11:20:25;7.25;7.25;6.00
80289;PMS7003;69592;44.804;-0.550;2023-09-12T11:22:51;11.25;10.25;7.50
80289;PMS7003;69592;44.804;-0.550;2023-09-12T11:30:16;3.25;3.25;2.25
80289;PMS7003;69592;44.804;-0.550;2023-09-12T11:32:47;8.50;8.50;7.25
80289;PMS7003;69592;44.804;-0.550;2023-09-12T11:35:16;11.00;11.00;8.50
80289;PMS7003;69592;44.804;-0.550;2023-09-12T11:37:50;9.00;8.25;6.75
80289;PMS7003;69592;44.804;-0.550;2023-09-12T11:40:41;11.50;8.75;7.25
80289;PMS7003;69592;44.804;-0.550;2023-09-12T11:43:17;10.50;10.00;9.00
80289;PMS7003;69592;44.804;-0.550;2023-09-12T11:45:45;10.75;10.25;7.25
80289;PMS7003;69592;44.804;-0.550;2023-09-12T11:48:12;10.00;10.00;8.50
80289;PMS7003;69592;44.804;-0.550;2023-09-12T11:50:37;7.50;7.50;6.00
80289;PMS7003;69592;44.804;-0.550;2023-09-12T11:55:34;9.00;9.00;7.50
80289;PMS7003;69592;44.804;-0.550;2023-09-12T11:58:03;9.25;9.00;6.50
80289;PMS7003;69592;44.804;-0.550;2023-09-12T12:00:29;9.50;8.75;6.75
80289;PMS7003;69592;44.804;-0.550;2023-09-12T12:02:55;10.75;9.75;8.00
80289;PMS7003;69592;44.804;-0.550;2023-09-12T12:05:21;10.50;9.00;7.00
80289;PMS7003;69592;44.804;-0.550;2023-09-12T12:07:47;10.25;9.50;6.75
80289;PMS7003;69592;44.804;-0.550;2023-09-12T12:10:13;9.25;9.25;6.75
80289;PMS7003;69592;44.804;-0.550;2023-09-12T12:12:39;8.00;7.00;6.25
80289;PMS7003;69592;44.804;-0.550;2023-09-12T12:15:09;9.25;8.00;7.00
80289;PMS7003;69592;44.804;-0.550;2023-09-12T12:17:36;7.75;7.75;6.00
80289;PMS7003;69592;44.804;-0.550;2023-09-12T12:20:02;7.75;7.75;6.25
80289;PMS7003;69592;44.804;-0.550;2023-09-12T12:22:33;6.50;6.50;5.50
80289;PMS7003;69592;44.804;-0.550;2023-09-12T12:25:05;7.25;7.25;6.25
80289;PMS7003;69592;44.804;-0.550;2023-09-12T12:27:31;8.75;7.75;6.50
80289;PMS7003;69592;44.804;-0.550;2023-09-12T12:29:57;8.75;8.75;6.25
80289;PMS7003;69592;44.804;-0.550;2023-09-12T12:32:22;7.50;7.50;5.50
80289;PMS7003;69592;44.804;-0.550;2023-09-12T12:34:48;7.25;7.25;5.75
80289;PMS7003;69592;44.804;-0.550;2023-09-12T12:37:14;8.50;8.50;5.50
80289;PMS7003;69592;44.804;-0.550;2023-09-12T12:39:42;10.00;10.00;8.00
80289;PMS7003;69592;44.804;-0.550;2023-09-12T12:42:08;7.75;7.75;6.75
80289;PMS7003;69592;44.804;-0.550;2023-09-12T12:44:34;7.00;7.00;5.00
80289;PMS7003;69592;44.804;-0.550;2023-09-12T12:47:06;8.00;8.00;6.25
80289;PMS7003;69592;44.804;-0.550;2023-09-12T12:49:35;6.00;6.00;5.00
80289;PMS7003;69592;44.804;-0.550;2023-09-12T12:52:11;7.75;7.75;6.00
80289;PMS7003;69592;44.804;-0.550;2023-09-12T12:54:37;7.75;7.75;5.75
80289;PMS7003;69592;44.804;-0.550;2023-09-12T12:57:02;6.75;6.25;4.75
80289;PMS7003;69592;44.804;-0.550;2023-09-12T12:59:28;8.75;7.50;6.25
80289;PMS7003;69592;44.804;-0.550;2023-09-12T13:01:55;8.75;8.75;7.00
80289;PMS7003;69592;44.804;-0.550;2023-09-12T13:04:20;7.00;7.00;5.75
80289;PMS7003;69592;44.804;-0.550;2023-09-12T13:06:46;6.50;6.00;4.00
80289;PMS7003;69592;44.804;-0.550;2023-09-12T13:09:11;7.25;7.25;6.00
80289;PMS7003;69592;44.804;-0.550;2023-09-12T13:11:37;7.00;7.00;6.25
80289;PMS7003;69592;44.804;-0.550;2023-09-12T13:14:03;8.75;6.00;5.00
80289;PMS7003;69592;44.804;-0.550;2023-09-12T13:16:35;6.20;6.00;5.00
80289;PMS7003;69592;44.804;-0.550;2023-09-12T13:19:01;7.00;7.00;5.25
80289;PMS7003;69592;44.804;-0.550;2023-09-12T13:21:28;8.75;7.25;5.75
80289;PMS7003;69592;44.804;-0.550;2023-09-12T13:23:53;7.75;6.75;5.00
80289;PMS7003;69592;44.804;-0.550;2023-09-12T13:26:18;8.00;8.00;6.50
80289;PMS7003;69592;44.804;-0.550;2023-09-12T13:28:44;7.75;7.00;5.75
80289;PMS7003;69592;44.804;-0.550;2023-09-12T13:31:09;7.00;6.75;5.00
80289;PMS7003;69592;44.804;-0.550;2023-09-12T13:33:35;6.75;6.75;5.00
80289;PMS7003;69592;44.804;-0.550;2023-09-12T13:36:00;8.00;7.00;6.00
80289;PMS7003;69592;44.804;-0.550;2023-09-12T13:38:26;8.00;6.00;5.75
80289;PMS7003;69592;44.804;-0.550;2023-09-12T13:40:52;6.75;6.00;5.00
80289;PMS7003;69592;44.804;-0.550;2023-09-12T13:43:17;5.00;5.00;4.00
80289;PMS7003;69592;44.804;-0.550;2023-09-12T13:45:43;7.40;6.60;6.00
80289;PMS7003;69592;44.804;-0.550;2023-09-12T13:48:09;8.25;8.25;6.00
80289;PMS7003;69592;44.804;-0.550;2023-09-12T13:50:34;7.00;7.00;5.75
80289;PMS7003;69592;44.804;-0.550;2023-09-12T13:53:00;7.25;7.25;6.00
80289;PMS7003;69592;44.804;-0.550;2023-09-12T13:55:32;6.20;6.00;5.00
80289;PMS7003;69592;44.804;-0.550;2023-09-12T13:58:00;7.75;7.00;5.00
80289;PMS7003;69592;44.804;-0.550;2023-09-12T14:00:29;7.00;7.00;5.00
80289;PMS7003;69592;44.804;-0.550;2023-09-12T14:02:55;5.50;5.00;4.00
80289;PMS7003;69592;44.804;-0.550;2023-09-12T14:05:21;7.00;7.00;6.25